Time;durP1;ratioP1;P1;durP2;ratioP2;P2;SDS_P1;SDS_P2;PMS_P1;PMS_P2;Temp;Humidity;BMP_temperature;BMP_pressure;BME280_temperature;BME280_humidity;BME280_pressure;Samples;Min_cycle;Max_cycle;Signal;HPM_P1;HPM_P2
2023/06/07 00:01:11;;;;;;;8.80;2.80;;;;;;;;;;7366987;19;20430;-69
2023/06/07 00:03:37;;;;;;;7.35;2.72;;;;;;;;;;7367920;19;20038;-69
2023/06/07 00:06:03;;;;;;;7.82;2.90;;;;;;;;;;7361129;19;20026;-69
2023/06/07 00:08:29;;;;;;;5.50;3.00;;;;;;;;;;7366058;19;20018;-69
2023/06/07 00:10:55;;;;;;;9.68;3.05;;;;;;;;;;7389977;19;20010;-68
2023/06/07 00:13:20;;;;;;;8.93;2.83;;;;;;;;;;7366622;19;20504;-69
2023/06/07 00:15:45;;;;;;;4.57;2.67;;;;;;;;;;7366989;19;20010;-70
2023/06/07 00:18:11;;;;;;;7.57;2.90;;;;;;;;;;7365897;19;20107;-69
2023/06/07 00:20:36;;;;;;;6.07;2.80;;;;;;;;;;7368274;19;20127;-70
2023/06/07 00:23:01;;;;;;;9.73;3.10;;;;;;;;;;7380694;19;20026;-69
2023/06/07 00:25:27;;;;;;;10.32;3.30;;;;;;;;;;7381609;19;20018;-69
2023/06/07 00:27:53;;;;;;;12.38;3.10;;;;;;;;;;7364778;19;20026;-70
2023/06/07 00:30:18;;;;;;;6.20;2.90;;;;;;;;;;7366065;19;20018;-69
2023/06/07 00:32:44;;;;;;;10.13;3.22;;;;;;;;;;7364868;19;20393;-70
2023/06/07 00:35:13;;;;;;;6.85;3.00;;;;;;;;;;7365654;19;20365;-68
2023/06/07 00:37:38;;;;;;;8.68;3.47;;;;;;;;;;7386668;19;20021;-69
2023/06/07 00:40:07;;;;;;;11.40;3.10;;;;;;;;;;7364819;19;20015;-70
2023/06/07 00:42:33;;;;;;;8.75;2.92;;;;;;;;;;7364875;19;20545;-69
2023/06/07 00:44:58;;;;;;;6.97;2.85;;;;;;;;;;7364058;19;20122;-69
2023/06/07 00:47:25;;;;;;;7.85;2.80;;;;;;;;;;7365807;19;20520;-69
2023/06/07 00:49:50;;;;;;;8.25;2.80;;;;;;;;;;7387246;19;20027;-69
2023/06/07 00:52:16;;;;;;;6.53;2.70;;;;;;;;;;7363924;19;20010;-69
2023/06/07 00:54:42;;;;;;;6.22;2.95;;;;;;;;;;7364042;19;20014;-69
2023/06/07 00:57:07;;;;;;;7.40;3.08;;;;;;;;;;7364720;19;20466;-69
2023/06/07 00:59:33;;;;;;;8.25;3.05;;;;;;;;;;7363960;19;20014;-70
2023/06/07 01:02:01;;;;;;;10.77;2.78;;;;;;;;;;7383953;19;20010;-69
2023/06/07 01:04:29;;;;;;;8.15;3.25;;;;;;;;;;7363850;19;20006;-70
2023/06/07 01:06:54;;;;;;;5.80;2.97;;;;;;;;;;7364792;19;20368;-70
2023/06/07 01:09:22;;;;;;;5.80;2.70;;;;;;;;;;7364566;19;20049;-69
2023/06/07 01:11:50;;;;;;;8.15;2.85;;;;;;;;;;7364678;19;20353;-71
2023/06/07 01:14:17;;;;;;;5.28;2.88;;;;;;;;;;7361495;19;20010;-70
2023/06/07 01:16:44;;;;;;;10.55;3.15;;;;;;;;;;7385067;19;20010;-70
2023/06/07 01:19:17;;;;;;;5.88;2.95;;;;;;;;;;7365299;19;20011;-69
2023/06/07 01:21:43;;;;;;;5.90;3.20;;;;;;;;;;7366587;19;20007;-70
2023/06/07 01:24:09;;;;;;;5.25;2.95;;;;;;;;;;7364595;19;20081;-69
2023/06/07 01:26:36;;;;;;;6.50;3.50;;;;;;;;;;7364407;19;20877;-70
2023/06/07 01:29:06;;;;;;;6.72;3.03;;;;;;;;;;7371158;19;20736;-70
2023/06/07 01:31:34;;;;;;;7.70;3.20;;;;;;;;;;7387780;19;20022;-70
2023/06/07 01:34:01;;;;;;;6.32;2.97;;;;;;;;;;7362829;19;20508;-69
2023/06/07 01:36:29;;;;;;;8.63;3.25;;;;;;;;;;7364870;19;20022;-70
2023/06/07 01:38:56;;;;;;;10.40;3.08;;;;;;;;;;7363756;19;20014;-70
2023/06/07 01:41:23;;;;;;;9.30;3.28;;;;;;;;;;7368446;19;20392;-70
2023/06/07 01:43:48;;;;;;;6.65;2.90;;;;;;;;;;7394188;19;20014;-69
2023/06/07 01:46:15;;;;;;;8.27;2.80;;;;;;;;;;7371000;19;20018;-70
2023/06/07 01:48:40;;;;;;;5.43;3.03;;;;;;;;;;7372764;19;20034;-70
2023/06/07 01:51:05;;;;;;;5.00;2.67;;;;;;;;;;7371613;19;20010;-69
2023/06/07 01:53:31;;;;;;;5.55;3.00;;;;;;;;;;7370877;19;20038;-71
2023/06/07 01:56:07;;;;;;;10.18;3.15;;;;;;;;;;7394252;19;20015;-69
2023/06/07 01:58:48;;;;;;;7.30;3.10;;;;;;;;;;7369385;19;20370;-69
2023/06/07 02:01:44;;;;;;;8.73;3.28;;;;;;;;;;7371902;19;20126;-68
2023/06/07 02:04:12;;;;;;;5.45;3.10;;;;;;;;;;7371851;19;20010;-69
2023/06/07 02:06:44;;;;;;;7.38;2.67;;;;;;;;;;7369256;19;20006;-70
2023/06/07 02:09:11;;;;;;;6.60;2.92;;;;;;;;;;7369415;19;20017;-70
2023/06/07 02:11:38;;;;;;;6.32;3.00;;;;;;;;;;7369446;19;20015;-70
2023/06/07 02:14:04;;;;;;;9.98;4.20;;;;;;;;;;7368854;19;19998;-69
2023/06/07 02:16:36;;;;;;;9.30;3.40;;;;;;;;;;7394306;19;20373;-68
2023/06/07 02:19:06;;;;;;;7.95;2.88;;;;;;;;;;7372869;19;20025;-69
2023/06/07 02:21:41;;;;;;;16.60;3.57;;;;;;;;;;7373945;19;19994;-69
2023/06/07 02:24:07;;;;;;;5.40;2.70;;;;;;;;;;7374122;19;20014;-68
2023/06/07 02:26:33;;;;;;;8.75;3.30;;;;;;;;;;7373579;19;20523;-69
2023/06/07 02:28:58;;;;;;;6.75;3.10;;;;;;;;;;7394922;19;20806;-70
2023/06/07 02:31:25;;;;;;;8.50;3.17;;;;;;;;;;7372239;19;20018;-69
2023/06/07 02:33:51;;;;;;;7.07;3.13;;;;;;;;;;7373013;19;20382;-69
2023/06/07 02:36:20;;;;;;;7.90;3.20;;;;;;;;;;7374372;19;20053;-70
2023/06/07 02:38:46;;;;;;;6.95;2.85;;;;;;;;;;7374619;19;20006;-69
2023/06/07 02:41:11;;;;;;;6.30;3.00;;;;;;;;;;7375216;19;20017;-69
2023/06/07 02:43:36;;;;;;;5.55;3.05;;;;;;;;;;7396857;19;20089;-69
2023/06/07 02:46:02;;;;;;;8.57;3.17;;;;;;;;;;7373898;19;20007;-69
2023/06/07 02:48:28;;;;;;;6.35;3.25;;;;;;;;;;7374555;19;20369;-69
2023/06/07 02:50:53;;;;;;;7.50;3.40;;;;;;;;;;7374585;19;20029;-70
2023/06/07 02:53:18;;;;;;;7.63;3.40;;;;;;;;;;7374003;19;20062;-71
2023/06/07 02:55:44;;;;;;;9.15;3.22;;;;;;;;;;7396743;19;20002;-70
2023/06/07 02:58:09;;;;;;;7.53;3.25;;;;;;;;;;7373493;19;20018;-69
2023/06/07 03:00:35;;;;;;;6.40;3.38;;;;;;;;;;7376365;19;20002;-69
2023/06/07 03:03:00;;;;;;;6.13;3.00;;;;;;;;;;7375049;19;20039;-70
2023/06/07 03:05:26;;;;;;;8.38;3.42;;;;;;;;;;7376862;19;20010;-70
2023/06/07 03:07:52;;;;;;;6.65;3.10;;;;;;;;;;7395658;19;20052;-69
2023/06/07 03:10:18;;;;;;;5.55;3.25;;;;;;;;;;7374239;19;20104;-69
2023/06/07 03:12:44;;;;;;;7.07;3.30;;;;;;;;;;7373101;19;20092;-70
2023/06/07 03:15:09;;;;;;;6.57;3.42;;;;;;;;;;7371628;19;20011;-70
2023/06/07 03:17:36;;;;;;;6.15;3.30;;;;;;;;;;7368506;19;20014;-70
2023/06/07 03:20:03;;;;;;;5.90;3.17;;;;;;;;;;7381190;19;20097;-71
2023/06/07 03:22:28;;;;;;;6.55;3.30;;;;;;;;;;7389354;19;20022;-70
2023/06/07 03:24:54;;;;;;;8.27;3.30;;;;;;;;;;7368810;19;20038;-70
2023/06/07 03:27:23;;;;;;;9.60;3.33;;;;;;;;;;7366222;19;20021;-70
2023/06/07 03:29:49;;;;;;;5.72;3.00;;;;;;;;;;7366548;19;20010;-69
2023/06/07 03:32:14;;;;;;;7.95;3.75;;;;;;;;;;7367867;19;20021;-70
2023/06/07 03:34:41;;;;;;;5.97;3.20;;;;;;;;;;7388660;19;20037;-69
2023/06/07 03:37:07;;;;;;;5.57;3.20;;;;;;;;;;7368838;19;20002;-70
2023/06/07 03:39:32;;;;;;;6.18;3.20;;;;;;;;;;7367444;19;20010;-69
2023/06/07 03:41:57;;;;;;;7.38;3.63;;;;;;;;;;7368350;19;20499;-70
2023/06/07 03:44:23;;;;;;;6.75;3.28;;;;;;;;;;7368750;19;20397;-70
2023/06/07 03:46:49;;;;;;;7.88;3.40;;;;;;;;;;7389866;19;20027;-69
2023/06/07 03:49:14;;;;;;;5.70;3.28;;;;;;;;;;7368329;19;20011;-70
2023/06/07 03:51:41;;;;;;;7.05;3.40;;;;;;;;;;7369209;19;20017;-70
2023/06/07 03:54:06;;;;;;;7.68;3.45;;;;;;;;;;7368495;19;20026;-69
2023/06/07 03:56:32;;;;;;;9.32;3.55;;;;;;;;;;7367997;19;20399;-70
2023/06/07 03:59:01;;;;;;;8.43;3.45;;;;;;;;;;7389873;19;20046;-70
2023/06/07 04:01:27;;;;;;;7.25;3.28;;;;;;;;;;7367696;19;20014;-70
2023/06/07 04:03:52;;;;;;;9.38;3.20;;;;;;;;;;7368494;19;20416;-70
2023/06/07 04:06:20;;;;;;;5.90;2.95;;;;;;;;;;7368167;19;20007;-70
2023/06/07 04:08:46;;;;;;;7.13;3.10;;;;;;;;;;7369075;19;20094;-70
2023/06/07 04:11:11;;;;;;;7.38;3.35;;;;;;;;;;7366240;19;20023;-70
2023/06/07 04:13:36;;;;;;;9.55;3.75;;;;;;;;;;7388459;19;20508;-70
2023/06/07 04:16:02;;;;;;;6.68;3.17;;;;;;;;;;7367712;19;20014;-70
2023/06/07 04:18:27;;;;;;;10.05;3.45;;;;;;;;;;7367547;19;20029;-70
2023/06/07 04:20:52;;;;;;;6.32;3.25;;;;;;;;;;7369825;19;20011;-70
2023/06/07 04:23:18;;;;;;;10.25;3.88;;;;;;;;;;7368748;19;20010;-70
2023/06/07 04:25:43;;;;;;;5.82;3.33;;;;;;;;;;7389677;19;20036;-70
2023/06/07 04:28:10;;;;;;;5.68;3.17;;;;;;;;;;7366027;19;20034;-70
2023/06/07 04:30:36;;;;;;;7.57;3.28;;;;;;;;;;7368389;19;20081;-70
2023/06/07 04:33:08;;;;;;;7.30;3.13;;;;;;;;;;7368356;19;20026;-70
2023/06/07 04:35:36;;;;;;;5.90;2.92;;;;;;;;;;7368205;19;20014;-70
2023/06/07 04:38:01;;;;;;;8.07;3.30;;;;;;;;;;7380464;19;20026;-71
2023/06/07 04:40:28;;;;;;;6.63;3.08;;;;;;;;;;7383637;19;20002;-69
2023/06/07 04:43:05;;;;;;;6.70;3.25;;;;;;;;;;7368276;19;20355;-70
2023/06/07 04:45:33;;;;;;;6.07;3.20;;;;;;;;;;7368723;19;20006;-69
2023/06/07 04:48:00;;;;;;;6.63;3.15;;;;;;;;;;7369358;19;20003;-70
2023/06/07 04:50:29;;;;;;;8.65;3.30;;;;;;;;;;7372955;19;20010;-69
2023/06/07 04:53:00;;;;;;;7.15;3.15;;;;;;;;;;7392475;19;20171;-69
2023/06/07 04:55:30;;;;;;;6.07;3.40;;;;;;;;;;7368963;19;20010;-70
2023/06/07 04:57:57;;;;;;;9.07;3.33;;;;;;;;;;7367150;19;20002;-69
2023/06/07 05:00:24;;;;;;;7.70;3.65;;;;;;;;;;7367989;19;20078;-70
2023/06/07 05:02:50;;;;;;;6.38;3.22;;;;;;;;;;7379775;19;20010;-69
2023/06/07 05:05:15;;;;;;;8.00;3.35;;;;;;;;;;7378187;19;20040;-70
2023/06/07 05:07:42;;;;;;;6.28;3.40;;;;;;;;;;7398976;19;20002;-70
2023/06/07 05:10:07;;;;;;;5.50;3.10;;;;;;;;;;7379024;19;20015;-70
2023/06/07 05:12:33;;;;;;;7.50;3.17;;;;;;;;;;7376282;19;20006;-70
2023/06/07 05:14:58;;;;;;;7.50;3.40;;;;;;;;;;7374656;19;20457;-70
2023/06/07 05:17:23;;;;;;;9.23;3.78;;;;;;;;;;7380504;19;20018;-71
2023/06/07 05:19:49;;;;;;;8.27;3.65;;;;;;;;;;7401348;19;20016;-70
2023/06/07 05:22:15;;;;;;;7.57;3.42;;;;;;;;;;7388244;19;19998;-69
2023/06/07 05:24:40;;;;;;;6.85;3.60;;;;;;;;;;7388898;19;20077;-69
2023/06/07 05:27:06;;;;;;;7.78;3.88;;;;;;;;;;7387727;19;20045;-70
2023/06/07 05:29:32;;;;;;;11.80;3.60;;;;;;;;;;7387614;19;20045;-71
2023/06/07 05:31:57;;;;;;;8.57;3.33;;;;;;;;;;7409101;19;20010;-71
2023/06/07 05:34:22;;;;;;;5.35;2.97;;;;;;;;;;7382993;19;20027;-70
2023/06/07 05:36:48;;;;;;;8.85;3.30;;;;;;;;;;7378457;19;20014;-70
2023/06/07 05:39:17;;;;;;;7.90;3.63;;;;;;;;;;7381593;19;20596;-71
2023/06/07 05:41:42;;;;;;;12.57;3.45;;;;;;;;;;7387086;19;20011;-69
2023/06/07 05:44:08;;;;;;;8.82;3.28;;;;;;;;;;7387105;19;20353;-71
2023/06/07 05:46:33;;;;;;;6.88;3.30;;;;;;;;;;7408073;19;20468;-70
2023/06/07 05:48:58;;;;;;;8.13;3.50;;;;;;;;;;7389600;19;20029;-70
2023/06/07 05:51:23;;;;;;;8.30;3.92;;;;;;;;;;7388668;19;20046;-70
2023/06/07 05:53:49;;;;;;;6.57;3.40;;;;;;;;;;7380713;19;20011;-70
2023/06/07 05:56:16;;;;;;;7.25;3.33;;;;;;;;;;7386348;19;20034;-70
2023/06/07 05:58:43;;;;;;;7.85;3.20;;;;;;;;;;7404406;19;19994;-69
2023/06/07 06:01:11;;;;;;;7.75;3.17;;;;;;;;;;7378383;19;20824;-69
2023/06/07 06:03:36;;;;;;;7.00;3.30;;;;;;;;;;7382445;19;20058;-70
2023/06/07 06:06:15;;;;;;;9.18;3.30;;;;;;;;;;7380885;19;20040;-71
2023/06/07 06:08:40;;;;;;;9.77;4.13;;;;;;;;;;7378884;19;20483;-71
2023/06/07 06:11:06;;;;;;;7.07;3.03;;;;;;;;;;7377618;19;20030;-70
2023/06/07 06:13:32;;;;;;;7.00;3.60;;;;;;;;;;7392889;19;20381;-69
2023/06/07 06:15:58;;;;;;;6.28;3.10;;;;;;;;;;7387779;19;20014;-70
2023/06/07 06:18:23;;;;;;;6.55;3.00;;;;;;;;;;7374783;19;20010;-70
2023/06/07 06:20:48;;;;;;;6.57;3.38;;;;;;;;;;7373753;19;20021;-70
2023/06/07 06:23:13;;;;;;;6.78;3.30;;;;;;;;;;7374325;19;19998;-70
2023/06/07 06:25:39;;;;;;;7.75;3.42;;;;;;;;;;7396035;19;20066;-70
2023/06/07 06:28:04;;;;;;;7.32;3.45;;;;;;;;;;7368721;19;20085;-70
2023/06/07 06:30:30;;;;;;;9.25;3.20;;;;;;;;;;7373143;19;20034;-70
2023/06/07 06:32:55;;;;;;;6.32;2.95;;;;;;;;;;7371587;19;20010;-69
2023/06/07 06:35:21;;;;;;;9.38;3.60;;;;;;;;;;7374022;19;20110;-70
2023/06/07 06:37:46;;;;;;;9.48;3.92;;;;;;;;;;7394524;19;20023;-69
2023/06/07 06:40:12;;;;;;;12.35;3.50;;;;;;;;;;7371679;19;20086;-69
2023/06/07 06:42:37;;;;;;;8.30;3.35;;;;;;;;;;7370638;19;20441;-69
2023/06/07 06:45:03;;;;;;;11.82;3.33;;;;;;;;;;7371130;19;20014;-69
2023/06/07 06:47:29;;;;;;;13.18;3.80;;;;;;;;;;7371172;19;20066;-70
2023/06/07 06:49:54;;;;;;;13.07;3.83;;;;;;;;;;7394509;19;20033;-70
2023/06/07 06:52:19;;;;;;;7.85;3.78;;;;;;;;;;7371819;19;20017;-70
2023/06/07 06:54:45;;;;;;;9.70;3.38;;;;;;;;;;7370285;19;20359;-69
2023/06/07 06:57:10;;;;;;;15.00;3.72;;;;;;;;;;7368645;19;20262;-69
2023/06/07 06:59:36;;;;;;;8.23;3.83;;;;;;;;;;7369826;19;20059;-69
2023/06/07 07:02:01;;;;;;;11.27;3.47;;;;;;;;;;7386695;19;20345;-71
2023/06/07 07:04:26;;;;;;;8.45;3.88;;;;;;;;;;7381662;19;20001;-70
2023/06/07 07:06:52;;;;;;;10.38;4.20;;;;;;;;;;7369118;19;20022;-69
2023/06/07 07:09:17;;;;;;;9.40;3.80;;;;;;;;;;7369829;19;20378;-70
2023/06/07 07:11:42;;;;;;;7.80;3.63;;;;;;;;;;7370061;19;20022;-69
2023/06/07 07:14:08;;;;;;;8.02;3.45;;;;;;;;;;7368863;19;20487;-70
2023/06/07 07:16:33;;;;;;;4.80;2.85;;;;;;;;;;7390128;19;20018;-71
2023/06/07 07:18:59;;;;;;;7.30;3.78;;;;;;;;;;7369365;19;20014;-70
2023/06/07 07:21:26;;;;;;;6.47;3.60;;;;;;;;;;7370019;19;20007;-70
2023/06/07 07:23:51;;;;;;;12.50;3.92;;;;;;;;;;7369719;19;20006;-70
2023/06/07 07:26:17;;;;;;;9.82;3.75;;;;;;;;;;7369754;19;20006;-71
2023/06/07 07:28:42;;;;;;;12.63;4.20;;;;;;;;;;7390809;19;20002;-69
2023/06/07 07:31:08;;;;;;;9.27;3.90;;;;;;;;;;7370429;19;20011;-70
2023/06/07 07:33:33;;;;;;;7.93;3.83;;;;;;;;;;7369518;19;20495;-69
2023/06/07 07:36:00;;;;;;;10.27;3.60;;;;;;;;;;7370679;19;20058;-69
2023/06/07 07:38:26;;;;;;;9.85;3.88;;;;;;;;;;7366098;19;20010;-69
2023/06/07 07:40:51;;;;;;;7.72;4.00;;;;;;;;;;7391702;19;20002;-69
2023/06/07 07:43:16;;;;;;;8.60;3.90;;;;;;;;;;7368988;19;20074;-69
2023/06/07 07:45:41;;;;;;;7.05;3.97;;;;;;;;;;7368895;19;20239;-69
2023/06/07 07:48:07;;;;;;;7.07;3.75;;;;;;;;;;7366752;19;20010;-69
2023/06/07 07:50:37;;;;;;;10.35;4.43;;;;;;;;;;7369648;19;20017;-69
2023/06/07 07:53:03;;;;;;;8.85;3.58;;;;;;;;;;7368739;19;20014;-69
2023/06/07 07:55:28;;;;;;;7.55;3.70;;;;;;;;;;7390506;19;20023;-69
2023/06/07 07:57:54;;;;;;;11.48;4.10;;;;;;;;;;7366796;19;20035;-69
2023/06/07 08:00:20;;;;;;;7.90;3.83;;;;;;;;;;7369425;19;20357;-69
2023/06/07 08:02:46;;;;;;;9.30;4.32;;;;;;;;;;7369888;19;20014;-69
2023/06/07 08:05:12;;;;;;;8.80;3.90;;;;;;;;;;7368630;19;20419;-70
2023/06/07 08:07:38;;;;;;;8.55;3.70;;;;;;;;;;7390273;19;20010;-70
2023/06/07 08:10:04;;;;;;;10.88;3.80;;;;;;;;;;7372205;19;20361;-70
2023/06/07 08:12:30;;;;;;;11.68;4.05;;;;;;;;;;7372593;19;20017;-70
2023/06/07 08:14:55;;;;;;;9.98;4.03;;;;;;;;;;7371815;19;20812;-71
2023/06/07 08:17:20;;;;;;;8.27;4.10;;;;;;;;;;7374182;19;20011;-71
2023/06/07 08:19:47;;;;;;;11.70;4.38;;;;;;;;;;7393412;19;20352;-71
2023/06/07 08:22:12;;;;;;;6.68;3.97;;;;;;;;;;7371523;19;20014;-69
2023/06/07 08:24:38;;;;;;;8.57;3.75;;;;;;;;;;7371532;19;20534;-70
2023/06/07 08:27:03;;;;;;;12.73;3.72;;;;;;;;;;7370229;19;20010;-70
2023/06/07 08:29:29;;;;;;;10.98;4.20;;;;;;;;;;7369460;19;20014;-69
2023/06/07 08:31:56;;;;;;;7.38;3.72;;;;;;;;;;7391228;19;20006;-69
2023/06/07 08:34:27;;;;;;;10.48;4.05;;;;;;;;;;7371756;19;20030;-69
2023/06/07 08:36:52;;;;;;;9.55;3.75;;;;;;;;;;7369328;19;20014;-69
2023/06/07 08:39:17;;;;;;;8.85;3.97;;;;;;;;;;7370255;19;20357;-69
2023/06/07 08:41:43;;;;;;;8.25;3.80;;;;;;;;;;7370213;19;20030;-69
2023/06/07 08:44:08;;;;;;;8.45;4.10;;;;;;;;;;7370596;19;20014;-69
2023/06/07 08:46:35;;;;;;;10.68;4.22;;;;;;;;;;7391551;19;20018;-69
2023/06/07 08:49:02;;;;;;;10.88;3.65;;;;;;;;;;7371618;19;20010;-69
2023/06/07 08:51:28;;;;;;;8.23;4.20;;;;;;;;;;7390198;19;20082;-69
2023/06/07 08:54:02;;;;;;;6.13;3.63;;;;;;;;;;7377525;19;20019;-69
2023/06/07 08:56:29;;;;;;;6.55;3.92;;;;;;;;;;7374700;19;20034;-69
2023/06/07 08:58:55;;;;;;;7.78;3.90;;;;;;;;;;7400674;19;20013;-70
2023/06/07 09:01:21;;;;;;;10.23;4.43;;;;;;;;;;7373384;19;20033;-69
2023/06/07 09:03:51;;;;;;;7.28;4.10;;;;;;;;;;7374876;19;20007;-70
2023/06/07 09:06:18;;;;;;;7.13;3.92;;;;;;;;;;7374620;19;20027;-69
2023/06/07 09:08:43;;;;;;;7.88;3.67;;;;;;;;;;7371841;19;20111;-69
2023/06/07 09:11:08;;;;;;;9.88;4.32;;;;;;;;;;7373717;19;20014;-70
2023/06/07 09:13:34;;;;;;;6.95;3.80;;;;;;;;;;7395696;19;19998;-69
2023/06/07 09:16:10;;;;;;;8.23;4.22;;;;;;;;;;7374014;19;20010;-69
2023/06/07 09:18:46;;;;;;;5.45;3.60;;;;;;;;;;7374844;19;20025;-69
2023/06/07 09:21:28;;;;;;;7.53;4.00;;;;;;;;;;7374241;19;20090;-69
2023/06/07 09:23:55;;;;;;;8.25;4.20;;;;;;;;;;7374863;19;20007;-69
2023/06/07 09:26:25;;;;;;;9.02;4.57;;;;;;;;;;7372510;19;20014;-69
2023/06/07 09:28:51;;;;;;;9.40;4.25;;;;;;;;;;7396409;19;20007;-69
2023/06/07 09:31:29;;;;;;;9.77;4.20;;;;;;;;;;7373714;19;20034;-69
2023/06/07 09:33:56;;;;;;;7.60;3.50;;;;;;;;;;7374712;19;20014;-68
2023/06/07 09:36:21;;;;;;;9.43;3.70;;;;;;;;;;7374411;19;20012;-70
2023/06/07 09:38:46;;;;;;;7.07;3.50;;;;;;;;;;7375008;19;20022;-69
2023/06/07 09:41:13;;;;;;;9.00;4.32;;;;;;;;;;7374579;19;20010;-69
2023/06/07 09:43:46;;;;;;;6.68;4.10;;;;;;;;;;7397979;19;20006;-68
2023/06/07 09:46:11;;;;;;;7.13;4.43;;;;;;;;;;7374261;19;20077;-70
2023/06/07 09:48:47;;;;;;;9.23;3.90;;;;;;;;;;7374667;19;20023;-70
2023/06/07 09:51:12;;;;;;;9.82;4.35;;;;;;;;;;7375028;19;20058;-70
2023/06/07 09:53:53;;;;;;;9.98;4.10;;;;;;;;;;7375668;19;20014;-70
2023/06/07 09:56:20;;;;;;;9.05;3.75;;;;;;;;;;7377068;19;20030;-70
2023/06/07 09:58:49;;;;;;;10.50;4.03;;;;;;;;;;7398938;19;20011;-70
2023/06/07 10:01:15;;;;;;;8.70;3.67;;;;;;;;;;7376981;19;20501;-69
2023/06/07 10:03:47;;;;;;;7.00;4.07;;;;;;;;;;7376734;19;20014;-69
2023/06/07 10:06:16;;;;;;;9.27;4.10;;;;;;;;;;7375811;19;20010;-71
2023/06/07 10:08:44;;;;;;;9.68;4.13;;;;;;;;;;7375925;19;20094;-70
2023/06/07 10:11:13;;;;;;;7.75;4.40;;;;;;;;;;7375733;19;20077;-70
2023/06/07 10:13:39;;;;;;;9.10;4.18;;;;;;;;;;7397062;19;20022;-70
2023/06/07 10:16:10;;;;;;;7.65;4.18;;;;;;;;;;7384660;19;20555;-70
2023/06/07 10:18:36;;;;;;;10.23;4.45;;;;;;;;;;7384546;19;20017;-70
2023/06/07 10:21:09;;;;;;;5.80;3.60;;;;;;;;;;7376191;19;20102;-69
2023/06/07 10:23:43;;;;;;;8.57;4.22;;;;;;;;;;7374838;19;20006;-69
2023/06/07 10:26:55;;;;;;;8.45;4.40;;;;;;;;;;7376174;19;20027;-69
2023/06/07 10:29:32;;;;;;;10.55;4.10;;;;;;;;;;7374232;19;20052;-69
2023/06/07 10:32:24;;;;;;;7.13;4.20;;;;;;;;;;7395006;19;20078;-70
2023/06/07 10:34:52;;;;;;;8.82;4.63;;;;;;;;;;7370636;19;20017;-69
2023/06/07 10:37:19;;;;;;;9.00;4.57;;;;;;;;;;7370257;19;20066;-69
2023/06/07 10:39:46;;;;;;;9.07;4.00;;;;;;;;;;7370302;19;20494;-70
2023/06/07 10:42:12;;;;;;;8.75;4.38;;;;;;;;;;7371386;19;20011;-70
2023/06/07 10:44:37;;;;;;;13.75;4.50;;;;;;;;;;7371740;19;20034;-70
2023/06/07 10:47:35;;;;;;;7.00;4.20;;;;;;;;;;7373242;19;20053;-71
2023/06/07 10:50:00;;;;;;;8.40;4.78;;;;;;;;;;7391398;19;20015;-71
2023/06/07 10:52:28;;;;;;;8.93;4.18;;;;;;;;;;7372115;19;20376;-70
2023/06/07 10:54:54;;;;;;;11.35;4.50;;;;;;;;;;7369027;19;20511;-70
2023/06/07 10:57:32;;;;;;;8.98;4.20;;;;;;;;;;7371108;19;20006;-71
2023/06/07 11:00:29;;;;;;;9.32;4.47;;;;;;;;;;7370177;19;20347;-70
2023/06/07 11:03:15;;;;;;;9.25;4.50;;;;;;;;;;7370527;19;20026;-70
2023/06/07 11:05:53;;;;;;;8.75;4.22;;;;;;;;;;7371154;19;20048;-70
2023/06/07 11:08:28;;;;;;;11.85;4.28;;;;;;;;;;7369106;19;20002;-70
2023/06/07 11:10:58;;;;;;;7.75;4.75;;;;;;;;;;7392115;19;20071;-71
2023/06/07 11:13:25;;;;;;;8.07;4.57;;;;;;;;;;7367000;19;20011;-70
2023/06/07 11:15:50;;;;;;;8.73;4.40;;;;;;;;;;7370847;19;20484;-70
2023/06/07 11:18:16;;;;;;;9.02;4.35;;;;;;;;;;7368643;19;20007;-70
2023/06/07 11:20:43;;;;;;;7.90;4.60;;;;;;;;;;7370114;19;20045;-70
2023/06/07 11:23:27;;;;;;;7.50;4.22;;;;;;;;;;7368572;19;20006;-70
2023/06/07 11:25:56;;;;;;;6.82;3.90;;;;;;;;;;7392877;19;20032;-69
2023/06/07 11:28:27;;;;;;;10.85;4.90;;;;;;;;;;7368985;19;20050;-69
2023/06/07 11:30:52;;;;;;;7.95;4.35;;;;;;;;;;7371211;19;20002;-69
2023/06/07 11:33:21;;;;;;;9.57;4.60;;;;;;;;;;7370239;19;20514;-69
2023/06/07 11:35:47;;;;;;;10.90;4.20;;;;;;;;;;7370895;19;20732;-70
2023/06/07 11:38:12;;;;;;;10.48;4.78;;;;;;;;;;7366302;19;20010;-70
2023/06/07 11:40:38;;;;;;;7.00;4.65;;;;;;;;;;7391338;19;20030;-69
2023/06/07 11:43:03;;;;;;;12.07;4.78;;;;;;;;;;7370606;19;20010;-70
2023/06/07 11:45:31;;;;;;;7.68;4.65;;;;;;;;;;7369722;19;20029;-69
2023/06/07 11:48:00;;;;;;;7.55;4.50;;;;;;;;;;7365887;19;20057;-71
2023/06/07 11:50:25;;;;;;;8.10;4.63;;;;;;;;;;7369258;19;20018;-70
2023/06/07 11:52:54;;;;;;;8.82;4.80;;;;;;;;;;7392040;19;20003;-68
2023/06/07 11:55:20;;;;;;;8.35;4.55;;;;;;;;;;7369063;19;20005;-68
2023/06/07 11:57:48;;;;;;;9.35;4.30;;;;;;;;;;7368247;19;20007;-69
2023/06/07 12:00:15;;;;;;;8.07;4.40;;;;;;;;;;7373444;19;20010;-70
2023/06/07 12:02:42;;;;;;;6.13;4.25;;;;;;;;;;7381382;19;20472;-70
2023/06/07 12:05:10;;;;;;;8.25;4.82;;;;;;;;;;7377853;19;20472;-71
2023/06/07 12:07:38;;;;;;;7.78;3.78;;;;;;;;;;7397701;19;20018;-70
2023/06/07 12:10:05;;;;;;;5.82;4.00;;;;;;;;;;7374044;19;20046;-69
2023/06/07 12:12:30;;;;;;;7.05;3.70;;;;;;;;;;7377112;19;20013;-69
2023/06/07 12:15:03;;;;;;;8.07;4.18;;;;;;;;;;7376383;19;20476;-69
2023/06/07 12:17:34;;;;;;;6.95;4.07;;;;;;;;;;7377584;19;20022;-69
2023/06/07 12:20:11;;;;;;;7.05;4.38;;;;;;;;;;7398262;19;20476;-69
2023/06/07 12:22:37;;;;;;;8.95;4.15;;;;;;;;;;7376385;19;20014;-69
2023/06/07 12:25:21;;;;;;;7.05;4.13;;;;;;;;;;7377645;19;20021;-69
2023/06/07 12:27:47;;;;;;;6.35;4.07;;;;;;;;;;7375218;19;20014;-70
2023/06/07 12:30:12;;;;;;;8.75;3.85;;;;;;;;;;7376646;19;20010;-68
2023/06/07 12:32:38;;;;;;;6.28;3.83;;;;;;;;;;7377411;19;20502;-69
2023/06/07 12:35:10;;;;;;;5.93;3.92;;;;;;;;;;7379977;19;20509;-69
2023/06/07 12:37:36;;;;;;;8.48;3.92;;;;;;;;;;7400778;19;20006;-69
2023/06/07 12:40:04;;;;;;;6.55;3.80;;;;;;;;;;7377541;19;20029;-69
2023/06/07 12:42:29;;;;;;;6.78;3.75;;;;;;;;;;7377966;19;20022;-70
2023/06/07 12:44:55;;;;;;;7.15;3.80;;;;;;;;;;7378985;19;20050;-70
2023/06/07 12:47:20;;;;;;;5.43;4.07;;;;;;;;;;7375129;19;20006;-68
2023/06/07 12:49:46;;;;;;;6.07;4.05;;;;;;;;;;7397742;19;20027;-69
2023/06/07 12:52:12;;;;;;;5.25;3.63;;;;;;;;;;7377181;19;20376;-70
2023/06/07 12:54:37;;;;;;;7.60;3.67;;;;;;;;;;7377594;19;20051;-69
2023/06/07 12:57:03;;;;;;;8.48;3.60;;;;;;;;;;7376437;19;20060;-68
2023/06/07 12:59:28;;;;;;;5.78;3.65;;;;;;;;;;7376393;19;20010;-68
2023/06/07 13:01:54;;;;;;;5.25;3.55;;;;;;;;;;7399275;19;19999;-69
2023/06/07 13:04:19;;;;;;;5.40;3.53;;;;;;;;;;7379610;19;20022;-69
2023/06/07 13:06:44;;;;;;;6.97;3.83;;;;;;;;;;7375947;19;20321;-69
2023/06/07 13:09:10;;;;;;;6.28;3.42;;;;;;;;;;7374686;19;20066;-70
2023/06/07 13:11:39;;;;;;;7.18;3.80;;;;;;;;;;7370863;19;20609;-69
2023/06/07 13:14:04;;;;;;;5.55;3.70;;;;;;;;;;7369937;19;19999;-69
2023/06/07 13:16:30;;;;;;;6.57;3.83;;;;;;;;;;7394315;19;20029;-69
2023/06/07 13:18:57;;;;;;;8.38;4.13;;;;;;;;;;7371719;19;20024;-68
2023/06/07 13:21:22;;;;;;;5.43;3.90;;;;;;;;;;7370447;19;20033;-69
2023/06/07 13:23:47;;;;;;;6.50;3.60;;;;;;;;;;7365281;19;20074;-69
2023/06/07 13:26:13;;;;;;;6.00;3.95;;;;;;;;;;7366063;19;20007;-69
2023/06/07 13:28:43;;;;;;;8.18;6.10;;;;;;;;;;7393745;19;20033;-72
2023/06/07 13:31:10;;;;;;;7.32;5.07;;;;;;;;;;7369054;19;20018;-72
2023/06/07 13:33:35;;;;;;;6.57;4.40;;;;;;;;;;7370708;19;20013;-72
2023/06/07 13:36:00;;;;;;;8.45;4.43;;;;;;;;;;7370855;19;20417;-70
2023/06/07 13:38:26;;;;;;;6.80;4.38;;;;;;;;;;7374282;19;20082;-70
2023/06/07 13:40:51;;;;;;;5.88;4.10;;;;;;;;;;7392453;19;20032;-71
2023/06/07 13:43:16;;;;;;;6.05;4.28;;;;;;;;;;7373576;19;20494;-73
2023/06/07 13:45:42;;;;;;;8.68;4.45;;;;;;;;;;7373510;19;20649;-73
2023/06/07 13:48:10;;;;;;;6.93;4.47;;;;;;;;;;7372535;19;20496;-73
2023/06/07 13:50:36;;;;;;;8.57;3.90;;;;;;;;;;7372469;19;20111;-72
2023/06/07 13:53:01;;;;;;;9.57;4.03;;;;;;;;;;7392905;19;20022;-72
2023/06/07 13:55:27;;;;;;;5.70;4.13;;;;;;;;;;7379652;19;19998;-71
2023/06/07 13:57:54;;;;;;;6.00;4.15;;;;;;;;;;7370590;19;20107;-71
2023/06/07 14:00:21;;;;;;;8.27;4.00;;;;;;;;;;7371212;19;20022;-70
2023/06/07 14:02:46;;;;;;;8.40;3.95;;;;;;;;;;7369959;19;20022;-66
2023/06/07 14:05:13;;;;;;;6.88;4.35;;;;;;;;;;7372474;19;20023;-67
2023/06/07 14:07:39;;;;;;;6.35;4.03;;;;;;;;;;7393800;19;20014;-71
2023/06/07 14:10:06;;;;;;;9.02;4.18;;;;;;;;;;7372012;19;20065;-71
2023/06/07 14:12:32;;;;;;;7.57;3.65;;;;;;;;;;7372104;19;20014;-71
2023/06/07 14:14:57;;;;;;;7.45;4.07;;;;;;;;;;7369815;19;20018;-66
2023/06/07 14:17:22;;;;;;;6.32;4.03;;;;;;;;;;7373164;19;21788;-70
2023/06/07 14:19:48;;;;;;;7.10;4.10;;;;;;;;;;7396241;19;20107;-75
2023/06/07 14:22:13;;;;;;;6.13;3.95;;;;;;;;;;7390589;19;20003;-69
2023/06/07 14:24:38;;;;;;;8.65;3.72;;;;;;;;;;7389213;19;20014;-70
2023/06/07 14:27:04;;;;;;;9.20;3.90;;;;;;;;;;7386323;19;20078;-72
2023/06/07 14:29:30;;;;;;;8.35;3.80;;;;;;;;;;7383855;19;20059;-72
2023/06/07 14:31:55;;;;;;;6.57;3.30;;;;;;;;;;7413074;19;20002;-71
2023/06/07 14:34:20;;;;;;;8.80;3.83;;;;;;;;;;7381910;19;20566;-71
2023/06/07 14:36:46;;;;;;;6.18;3.80;;;;;;;;;;7379015;19;20013;-71
2023/06/07 14:39:11;;;;;;;7.38;3.95;;;;;;;;;;7377224;19;20017;-67
2023/06/07 14:41:36;;;;;;;7.38;3.85;;;;;;;;;;7370360;19;20074;-65